x

Santa Monica Basin - 33nm Wsw Of Santa Monica, Ca (46025) Wave Buoy

4:50am - Sun 25th Jan 2015 All times are PST. -8 hours from GMT.

  • Sig Wave height 4.3ft
  • Swell Direction
  • Peak Period 14s
  • Average Period 11s
  • Wind
  • Sea Temp 62°f
  • 空気 Temp 64°f
  • Sea Pressure 1016.8mb
  • Santa Monica Basin - 33nm Wsw Of Santa Monica, Ca
  • Santa Monica Basin - 33nm Wsw Of Santa Monica, Ca

More Historic Weather Station data

Upgrade to MSW Pro to gain access to the past 30 days of data for over 8000 Wavebouys and Weather Stations around the globe.

Join Pro

Comparision Forecast

View Surf forecast
   
Sun 01/25 4:50am 4.5ft 14s 11s  -  2 mph 1016.8mb 62f 64f
3:50am 5.5ft 16s 12s 4 7 mph 1016.8mb 62f 63f
2:50am 4.5ft 16s 11s 2 7 mph 1017.1mb 62f 64f
1:50am 4.5ft 16s 10s 4 7 mph 1017.2mb 62f 63f
12:50am 4.5ft 17s 9s 4
mph
1017.1mb 62f 64f
Sat 01/24 11:50pm 4.5ft 17s 10s  -  2 mph 1017.5mb 62f 67f
10:50pm 4.5ft 17s 9s 4 7 mph 1017.6mb 62f 67f
9:50pm 4.5ft 14s 9s 4 7 mph 1017.4mb 62f 66f
8:50pm 5ft 17s 9s 7
mph
1016.9mb 62f 68f
7:50pm 5ft 16s 9s 7 9 mph 1016.6mb 62f 66f
6:50pm 5ft 16s 8s 11 13 mph 1016mb 62f 67f
5:50pm 4.5ft 16s 7s 11 13 mph 1015.7mb 62f 67f
4:50pm 5.5ft 17s 7s 13 16 mph 1015.6mb 62f 69f
3:50pm 6ft 17s 6s 13 18 mph 1015.7mb 62f 69f
2:50pm 6ft 17s 6s 20 25 mph 1015.5mb 62f 70f
1:50pm 6ft 17s 6s 20 25 mph 1015.7mb 62f 70f
12:50pm 7ft 16s 6s 27 36 mph 1016.5mb 62f 71f
11:50am 6ft 17s 6s 22 27 mph 1017.4mb 62f 69f
10:50am 6ft 17s 6s 18 20 mph 1018.9mb 62f 68f
9:50am 7ft 17s 6s 25 29 mph 1018.7mb 62f 69f
8:50am 5.5ft 17s 5s 25 31 mph 1018.4mb 62f 69f
7:50am 6ft 19s 7s 27 36 mph 1018.4mb 62f 68f
6:50am 5.5ft 17s 7s 25 31 mph 1018.8mb 62f 70f
5:50am 5ft 19s 7s 20 25 mph 1018.3mb 62f 68f
4:50am 5.5ft 19s 7s 25 31 mph 1017.6mb 62f 68f
3:50am 5ft 19s 8s 20 22 mph 1018.5mb 62f 67f
2:50am 4.5ft 19s 9s 11 13 mph 1019.3mb 62f 67f
1:50am 5.5ft 19s 11s 7 9 mph 1019.8mb 62f 66f
12:50am 5ft 19s 9s 9
mph
1020.1mb 62f 67f
Fri 01/23 11:50pm 5ft 19s 8s 11 13 mph 1020.1mb 62f 65f
10:50pm 4.5ft 19s 6s 13 18 mph 1020.5mb 62f 67f
9:50pm 4ft 19s 6s 9 13 mph 1020.7mb 62f 68f
8:50pm 4.5ft 19s 6s 13 20 mph 1020.7mb 62f 65f
7:50pm 4ft  -  5s 16 18 mph 1020.6mb 62f 65f
6:50pm 4ft 21s 8s 13 18 mph 1021mb 62f 64f
5:50pm 3ft 21s 9s 13 16 mph 1021mb 62f 64f
4:50pm 3ft 21s 10s 9 13 mph 1021mb 62f 64f
3:50pm 3.5ft 21s 11s 11
mph
1020.9mb 63f 63f
2:50pm 3.5ft 16s 10s 9 11 mph 1021.3mb 63f 63f
1:50pm 2.5ft 21s 9s 4 7 mph 1021.6mb 63f 64f
12:50pm 2.5ft 21s 8s 2 4 mph 1022.4mb 63f 64f
11:50am 3ft 12s 8s 4 7 mph 1023.6mb 62f 64f
10:50am 2.5ft 21s 7s 4 7 mph 1024.7mb 62f 63f
9:50am 3ft 16s 8s 7 9 mph 1024.8mb 62f 62f
8:50am 2.5ft 12s 7s 7 9 mph 1024.2mb 62f 63f
7:50am 2.5ft 12s 8s 4 7 mph 1024.2mb 62f 63f
6:50am 2.5ft 21s 8s 2 4 mph 1023.9mb 62f 62f
5:50am 2.5ft 12s 9s 7
mph
1023.7mb 62f 63f
4:50am 2.5ft 12s 9s 4
mph
1023mb 62f 63f
3:50am 2.5ft 11s 8s 7 9 mph 1023.2mb 62f 62f
2:50am 2.5ft 12s 9s 7 9 mph 1023.7mb 62f 62f
1:50am 2.5ft 11s 8s 7 9 mph 1023.9mb 62f 62f
12:50am 2.5ft 12s 9s 7
mph
1023.8mb 62f 63f
Thu 01/22 11:50pm 2.5ft 12s 8s 7 9 mph 1023.9mb 62f 62f
10:50pm 2.5ft 12s 8s 9
mph
1024.2mb 62f 63f
9:50pm 2.5ft 12s 6s 7 9 mph 1023.8mb 62f 63f
8:50pm 2.5ft 13s 6s 9
mph
1023.8mb 62f 63f
7:50pm 2.5ft 13s 6s 13 16 mph 1023.5mb 62f 64f
6:50pm 2.5ft 13s 8s 13 16 mph 1023.6mb 62f 62f
5:50pm 2.5ft 12s 8s 9 11 mph 1023.4mb 62f 62f
4:50pm 3ft 12s 8s 9 11 mph 1023.2mb 63f 63f
3:50pm 3ft 13s 8s 9
mph
1022.8mb 63f 64f
2:50pm 2.5ft 13s 8s 7
mph
1022.4mb 63f 64f
1:50pm 2.5ft 13s  -  4 7 mph 1022.3mb 63f 64f
12:50pm 2.5ft 13s 7s 7
mph
1022.3mb 63f 64f
11:50am 2.5ft 13s 7s 4
mph
1022.9mb 62f 63f
10:50am 2.5ft 13s 7s 9
mph
1023.3mb 62f 64f
9:50am 2.5ft 12s 7s 7 9 mph 1023.1mb 62f 63f
8:50am 3.5ft 12s 7s 2 4 mph 1022.7mb 62f 63f
7:50am 3.5ft 12s 7s 4
mph
1021.9mb 62f 63f
6:50am 3.5ft 12s 8s 4 7 mph 1021.5mb 62f 64f
5:50am 3ft 13s 7s 4
mph
1020.8mb 62f 62f
4:50am 3.5ft 12s 8s 4
mph
1020.2mb 62f 62f
3:50am 3ft 12s 7s 2 4 mph 1020.1mb 62f 62f
2:50am 3ft 13s 7s 4 7 mph 1020.1mb 62f 62f
1:50am 3.5ft 12s 8s  -  2 mph 1019.9mb 62f 62f
12:50am 3.5ft 14s 7s 4 7 mph 1019.7mb 62f 62f
Wed 01/21 11:50pm 3.5ft 14s 6s 7
mph
1019.4mb 62f 64f
10:50pm 3.5ft 12s 6s 9 11 mph 1018.9mb 62f 64f
9:50pm 4.5ft 14s 5s 13
mph
1018.2mb 62f 64f
8:50pm 4.5ft 14s 5s 13 16 mph 1017.7mb 62f 63f
7:50pm 5ft 13s 6s 13 18 mph 1017.3mb 62f 62f
6:50pm 4.5ft 12s 6s 13 16 mph 1017.3mb 62f 62f
5:50pm 4.5ft 14s 7s 9 11 mph 1017.1mb 62f 62f
4:50pm 4.5ft 13s 7s 11 13 mph 1016.7mb 62f 62f
3:50pm 4.5ft 13s 8s 11 13 mph 1016.5mb 62f 61f
2:50pm 5ft 14s 9s 7 9 mph 1016.3mb 62f 61f
1:50pm 5ft 13s 9s 7 9 mph 1016.5mb 62f 60f